Weather at Willow Run Airport

Public forecast

Using degrees Fahrenheit for public forecast. Weather courtesy of forecast.io.

Closest aviation weather report (METAR) to Willow Run Airport

Closest report is Fort Worth Alliance Airport, 7.1 nm (13.2 km) SSE. Retrieved 2020/09/20 09:53 UTC (29 minutes ago):

KAFW 200953Z 02003KT 9SM CLR 16/12 A3014 RMK AO2 SLP197 T01610122

Closest aviation forecast (TAF) to Willow Run Airport

Closest forecast is Fort Worth Alliance Airport, 7.1 nm (13.2 km) SSE. Retrieved 2020/09/20 06:22 UTC (4 hours ago):

TAF KAFW 200520Z 2006/2106 04006KT P6SM SKC FM210000 07008KT P6SM FEW060 BKN150